<?xml version="1.0" encoding="UTF-8" standalone="no" ?>
<gpx xmlns="http://www.topografix.com/GPX/1/1" xmlns:xsi="http://www.w3.org/2001/XMLSchema-instance" xsi:schemaLocation="http://www.topografix.com/GPX/1/1 http://www.topografix.com/GPX/1/1/gpx.xsd" version="1.1" creator="VisuGPX - https://www.visugpx.com">
  <metadata>
    <name>12356676-ROV Brignancourt-sur-Viosne  les 15K</name>
  </metadata>
  <trk>
    <name><![CDATA[12356676-ROV Brignancourt-sur-Viosne  les 15K]]></name>
    <extensions>
      <line xmlns="http://www.topografix.com/GPX/gpx_style/0/2">
        <color>0000FF</color>
        <width>4</width>
      </line>
    </extensions>
    <trkseg>
      <trkpt lat="49.13757" lon="1.94332">
        <ele>63.4</ele>
        <time>2022-11-15T18:58:25Z</time>
      </trkpt>
      <trkpt lat="49.13786" lon="1.94299">
        <ele>64</ele>
        <time>2022-11-15T18:58:50Z</time>
      </trkpt>
      <trkpt lat="49.13805" lon="1.94294">
        <ele>66</ele>
        <time>2022-11-15T18:59:16Z</time>
      </trkpt>
      <trkpt lat="49.13824" lon="1.94267">
        <ele>66.5</ele>
      </trkpt>
      <trkpt lat="49.13814" lon="1.94245">
        <ele>64.9</ele>
        <time>2022-11-15T19:00:22Z</time>
      </trkpt>
      <trkpt lat="49.1386" lon="1.94145">
        <ele>67.2</ele>
        <time>2022-11-15T19:01:50Z</time>
      </trkpt>
      <trkpt lat="49.13894" lon="1.94071">
        <ele>64</ele>
        <time>2022-11-15T19:03:10Z</time>
      </trkpt>
      <trkpt lat="49.1394" lon="1.94006">
        <ele>65</ele>
        <time>2022-11-15T19:04:33Z</time>
      </trkpt>
      <trkpt lat="49.13967" lon="1.93987">
        <ele>66</ele>
        <time>2022-11-15T19:05:13Z</time>
      </trkpt>
      <trkpt lat="49.13994" lon="1.9398">
        <ele>67</ele>
        <time>2022-11-15T19:05:49Z</time>
      </trkpt>
      <trkpt lat="49.14084" lon="1.93979">
        <ele>69</ele>
        <time>2022-11-15T19:07:50Z</time>
      </trkpt>
      <trkpt lat="49.14215" lon="1.9398">
        <ele>71</ele>
        <time>2022-11-15T19:10:44Z</time>
      </trkpt>
      <trkpt lat="49.14303" lon="1.94004">
        <ele>75</ele>
        <time>2022-11-15T19:12:44Z</time>
      </trkpt>
      <trkpt lat="49.1433" lon="1.94004">
        <ele>75</ele>
        <time>2022-11-15T19:13:20Z</time>
      </trkpt>
      <trkpt lat="49.14454" lon="1.93941">
        <ele>67</ele>
        <time>2022-11-15T19:16:14Z</time>
      </trkpt>
      <trkpt lat="49.14494" lon="1.93942">
        <ele>66</ele>
        <time>2022-11-15T19:17:08Z</time>
      </trkpt>
      <trkpt lat="49.14569" lon="1.94004">
        <ele>58</ele>
        <time>2022-11-15T19:18:56Z</time>
      </trkpt>
      <trkpt lat="49.14606" lon="1.93996">
        <ele>58</ele>
        <time>2022-11-15T19:19:55Z</time>
      </trkpt>
      <trkpt lat="49.14635" lon="1.93955">
        <ele>65</ele>
        <time>2022-11-15T19:20:44Z</time>
      </trkpt>
      <trkpt lat="49.14641" lon="1.94066">
        <ele>71</ele>
        <time>2022-11-15T19:22:21Z</time>
      </trkpt>
      <trkpt lat="49.14651" lon="1.94237">
        <ele>78</ele>
        <time>2022-11-15T19:24:51Z</time>
      </trkpt>
      <trkpt lat="49.14773" lon="1.94391">
        <ele>89</ele>
        <time>2022-11-15T19:28:22Z</time>
      </trkpt>
      <trkpt lat="49.14778" lon="1.94396">
        <ele>89</ele>
        <time>2022-11-15T19:28:30Z</time>
      </trkpt>
      <trkpt lat="49.14872" lon="1.94578">
        <ele>93</ele>
        <time>2022-11-15T19:31:53Z</time>
      </trkpt>
      <trkpt lat="49.1488" lon="1.94594">
        <ele>93</ele>
        <time>2022-11-15T19:32:10Z</time>
      </trkpt>
      <trkpt lat="49.14927" lon="1.94632">
        <ele>91</ele>
        <time>2022-11-15T19:33:21Z</time>
      </trkpt>
      <trkpt lat="49.1497" lon="1.94672">
        <ele>90</ele>
        <time>2022-11-15T19:34:28Z</time>
      </trkpt>
      <trkpt lat="49.14929" lon="1.95058">
        <ele>105</ele>
        <time>2022-11-15T19:40:10Z</time>
      </trkpt>
      <trkpt lat="49.1493" lon="1.95072">
        <ele>106</ele>
        <time>2022-11-15T19:40:22Z</time>
      </trkpt>
      <trkpt lat="49.14934" lon="1.95083">
        <ele>107</ele>
        <time>2022-11-15T19:40:33Z</time>
      </trkpt>
      <trkpt lat="49.14939" lon="1.95089">
        <ele>107</ele>
        <time>2022-11-15T19:40:41Z</time>
      </trkpt>
      <trkpt lat="49.14983" lon="1.95094">
        <ele>104</ele>
        <time>2022-11-15T19:41:40Z</time>
      </trkpt>
      <trkpt lat="49.15039" lon="1.95118">
        <ele>102</ele>
        <time>2022-11-15T19:42:58Z</time>
      </trkpt>
      <trkpt lat="49.15218" lon="1.95266">
        <ele>101</ele>
        <time>2022-11-15T19:47:29Z</time>
      </trkpt>
      <trkpt lat="49.15367" lon="1.95383">
        <ele>106</ele>
        <time>2022-11-15T19:51:13Z</time>
      </trkpt>
      <trkpt lat="49.15421" lon="1.95415">
        <ele>107</ele>
        <time>2022-11-15T19:52:30Z</time>
      </trkpt>
      <trkpt lat="49.1543" lon="1.95421">
        <ele>106</ele>
        <time>2022-11-15T19:52:43Z</time>
      </trkpt>
      <trkpt lat="49.15466" lon="1.95469">
        <ele>105</ele>
        <time>2022-11-15T19:53:47Z</time>
      </trkpt>
      <trkpt lat="49.15465" lon="1.9547">
        <ele>105</ele>
        <time>2022-11-15T19:53:49Z</time>
      </trkpt>
      <trkpt lat="49.1546" lon="1.95482">
        <ele>105</ele>
        <time>2022-11-15T19:54:01Z</time>
      </trkpt>
      <trkpt lat="49.15468" lon="1.95494">
        <ele>105</ele>
        <time>2022-11-15T19:54:16Z</time>
      </trkpt>
      <trkpt lat="49.15537" lon="1.95471">
        <ele>101</ele>
        <time>2022-11-15T19:55:50Z</time>
      </trkpt>
      <trkpt lat="49.15578" lon="1.95474">
        <ele>100</ele>
        <time>2022-11-15T19:56:45Z</time>
      </trkpt>
      <trkpt lat="49.15626" lon="1.95489">
        <ele>99</ele>
        <time>2022-11-15T19:57:50Z</time>
      </trkpt>
      <trkpt lat="49.15661" lon="1.95484">
        <ele>99</ele>
        <time>2022-11-15T19:58:37Z</time>
      </trkpt>
      <trkpt lat="49.15716" lon="1.95477">
        <ele>99</ele>
        <time>2022-11-15T19:59:51Z</time>
      </trkpt>
      <trkpt lat="49.15831" lon="1.9545">
        <ele>106</ele>
        <time>2022-11-15T20:02:26Z</time>
      </trkpt>
      <trkpt lat="49.15861" lon="1.95443">
        <ele>105</ele>
        <time>2022-11-15T20:03:07Z</time>
      </trkpt>
      <trkpt lat="49.16244" lon="1.95301">
        <ele>108</ele>
        <time>2022-11-15T20:11:53Z</time>
      </trkpt>
      <trkpt lat="49.16251" lon="1.953">
        <ele>109</ele>
        <time>2022-11-15T20:12:02Z</time>
      </trkpt>
      <trkpt lat="49.16278" lon="1.95298">
        <ele>108</ele>
        <time>2022-11-15T20:12:38Z</time>
      </trkpt>
      <trkpt lat="49.16378" lon="1.95301">
        <ele>109</ele>
        <time>2022-11-15T20:14:52Z</time>
      </trkpt>
      <trkpt lat="49.16557" lon="1.95277">
        <ele>109</ele>
        <time>2022-11-15T20:18:51Z</time>
      </trkpt>
      <trkpt lat="49.1655" lon="1.95259">
        <ele>108.3</ele>
      </trkpt>
      <trkpt lat="49.16491" lon="1.9504">
        <ele>106</ele>
        <time>2022-11-15T20:22:36Z</time>
      </trkpt>
      <trkpt lat="49.1641" lon="1.94716">
        <ele>97</ele>
        <time>2022-11-15T20:27:39Z</time>
      </trkpt>
      <trkpt lat="49.16544" lon="1.94346">
        <ele>91</ele>
        <time>2022-11-15T20:33:48Z</time>
      </trkpt>
      <trkpt lat="49.16549" lon="1.9433">
        <ele>91</ele>
        <time>2022-11-15T20:34:03Z</time>
      </trkpt>
      <trkpt lat="49.16536" lon="1.943">
        <ele>90</ele>
        <time>2022-11-15T20:34:35Z</time>
      </trkpt>
      <trkpt lat="49.16528" lon="1.94288">
        <ele>90</ele>
        <time>2022-11-15T20:34:50Z</time>
      </trkpt>
      <trkpt lat="49.16524" lon="1.94251">
        <ele>89</ele>
        <time>2022-11-15T20:35:22Z</time>
      </trkpt>
      <trkpt lat="49.16523" lon="1.94214">
        <ele>88</ele>
        <time>2022-11-15T20:35:55Z</time>
      </trkpt>
      <trkpt lat="49.16525" lon="1.94194">
        <ele>88</ele>
        <time>2022-11-15T20:36:12Z</time>
      </trkpt>
      <trkpt lat="49.16531" lon="1.94127">
        <ele>86</ele>
        <time>2022-11-15T20:37:11Z</time>
      </trkpt>
      <trkpt lat="49.16535" lon="1.94101">
        <ele>86</ele>
        <time>2022-11-15T20:37:35Z</time>
      </trkpt>
      <trkpt lat="49.16541" lon="1.94083">
        <ele>85</ele>
        <time>2022-11-15T20:37:52Z</time>
      </trkpt>
      <trkpt lat="49.16539" lon="1.94086">
        <ele>85</ele>
        <time>2022-11-15T20:37:56Z</time>
      </trkpt>
      <trkpt lat="49.1653" lon="1.94087">
        <ele>85</ele>
        <time>2022-11-15T20:38:08Z</time>
      </trkpt>
      <trkpt lat="49.16503" lon="1.94075">
        <ele>85</ele>
        <time>2022-11-15T20:38:46Z</time>
      </trkpt>
      <trkpt lat="49.1646" lon="1.94065">
        <ele>85</ele>
        <time>2022-11-15T20:39:44Z</time>
      </trkpt>
      <trkpt lat="49.16442" lon="1.94058">
        <ele>85</ele>
        <time>2022-11-15T20:40:09Z</time>
      </trkpt>
      <trkpt lat="49.1641" lon="1.94024">
        <ele>84</ele>
        <time>2022-11-15T20:41:01Z</time>
      </trkpt>
      <trkpt lat="49.16403" lon="1.94016">
        <ele>84</ele>
        <time>2022-11-15T20:41:12Z</time>
      </trkpt>
      <trkpt lat="49.16402" lon="1.93998">
        <ele>83</ele>
        <time>2022-11-15T20:41:28Z</time>
      </trkpt>
      <trkpt lat="49.16401" lon="1.93982">
        <ele>83</ele>
        <time>2022-11-15T20:41:42Z</time>
      </trkpt>
      <trkpt lat="49.16398" lon="1.93967">
        <ele>82</ele>
        <time>2022-11-15T20:41:56Z</time>
      </trkpt>
      <trkpt lat="49.16391" lon="1.9395">
        <ele>81</ele>
        <time>2022-11-15T20:42:13Z</time>
      </trkpt>
      <trkpt lat="49.16387" lon="1.93939">
        <ele>81</ele>
        <time>2022-11-15T20:42:24Z</time>
      </trkpt>
      <trkpt lat="49.16379" lon="1.93928">
        <ele>80</ele>
        <time>2022-11-15T20:42:39Z</time>
      </trkpt>
      <trkpt lat="49.1637" lon="1.9392">
        <ele>80</ele>
        <time>2022-11-15T20:42:52Z</time>
      </trkpt>
      <trkpt lat="49.16361" lon="1.93911">
        <ele>80</ele>
        <time>2022-11-15T20:43:07Z</time>
      </trkpt>
      <trkpt lat="49.16344" lon="1.93905">
        <ele>79</ele>
        <time>2022-11-15T20:43:30Z</time>
      </trkpt>
      <trkpt lat="49.16328" lon="1.93904">
        <ele>79</ele>
        <time>2022-11-15T20:43:51Z</time>
      </trkpt>
      <trkpt lat="49.16309" lon="1.93909">
        <ele>78</ele>
        <time>2022-11-15T20:44:17Z</time>
      </trkpt>
      <trkpt lat="49.16272" lon="1.93923">
        <ele>78.4</ele>
        <time>2022-11-15T20:45:11Z</time>
      </trkpt>
      <trkpt lat="49.16238" lon="1.93976">
        <ele>77</ele>
        <time>2022-11-15T20:46:16Z</time>
      </trkpt>
      <trkpt lat="49.16226" lon="1.93985">
        <ele>77</ele>
        <time>2022-11-15T20:46:34Z</time>
      </trkpt>
      <trkpt lat="49.16203" lon="1.93987">
        <ele>76</ele>
        <time>2022-11-15T20:47:04Z</time>
      </trkpt>
      <trkpt lat="49.16165" lon="1.93985">
        <ele>73</ele>
        <time>2022-11-15T20:47:55Z</time>
      </trkpt>
      <trkpt lat="49.16128" lon="1.93999">
        <ele>73</ele>
        <time>2022-11-15T20:48:46Z</time>
      </trkpt>
      <trkpt lat="49.16103" lon="1.94">
        <ele>69</ele>
        <time>2022-11-15T20:49:20Z</time>
      </trkpt>
      <trkpt lat="49.16083" lon="1.93987">
        <ele>71</ele>
        <time>2022-11-15T20:49:48Z</time>
      </trkpt>
      <trkpt lat="49.1606" lon="1.93959">
        <ele>70</ele>
        <time>2022-11-15T20:50:27Z</time>
      </trkpt>
      <trkpt lat="49.16041" lon="1.9392">
        <ele>68</ele>
        <time>2022-11-15T20:51:29Z</time>
      </trkpt>
      <trkpt lat="49.15996" lon="1.93986">
        <ele>75</ele>
        <time>2022-11-15T20:52:52Z</time>
      </trkpt>
      <trkpt lat="49.15988" lon="1.93987">
        <ele>75</ele>
        <time>2022-11-15T20:53:03Z</time>
      </trkpt>
      <trkpt lat="49.15945" lon="1.93962">
        <ele>76.3</ele>
      </trkpt>
      <trkpt lat="49.15918" lon="1.93936">
        <ele>77</ele>
        <time>2022-11-15T20:54:47Z</time>
      </trkpt>
      <trkpt lat="49.15907" lon="1.93916">
        <ele>78.6</ele>
        <time>2022-11-15T20:55:19Z</time>
      </trkpt>
      <trkpt lat="49.15878" lon="1.93877">
        <ele>73</ele>
        <time>2022-11-15T20:56:02Z</time>
      </trkpt>
      <trkpt lat="49.15873" lon="1.93882">
        <ele>74</ele>
        <time>2022-11-15T20:56:09Z</time>
      </trkpt>
      <trkpt lat="49.15843" lon="1.93849">
        <ele>71</ele>
        <time>2022-11-15T20:56:59Z</time>
      </trkpt>
      <trkpt lat="49.15818" lon="1.93809">
        <ele>65.4</ele>
        <time>2022-11-15T20:57:50Z</time>
      </trkpt>
      <trkpt lat="49.15902" lon="1.9368">
        <ele>63</ele>
        <time>2022-11-15T21:00:30Z</time>
      </trkpt>
      <trkpt lat="49.15889" lon="1.93654">
        <ele>63</ele>
        <time>2022-11-15T21:01:06Z</time>
      </trkpt>
      <trkpt lat="49.15889" lon="1.9363">
        <ele>63.4</ele>
        <time>2022-11-15T21:01:51Z</time>
      </trkpt>
      <trkpt lat="49.15877" lon="1.93624">
        <ele>62</ele>
        <time>2022-11-15T21:02:12Z</time>
      </trkpt>
      <trkpt lat="49.15857" lon="1.93624">
        <ele>62</ele>
        <time>2022-11-15T21:02:45Z</time>
      </trkpt>
      <trkpt lat="49.15795" lon="1.93641">
        <ele>62</ele>
        <time>2022-11-15T21:04:09Z</time>
      </trkpt>
      <trkpt lat="49.15734" lon="1.93661">
        <ele>61</ele>
        <time>2022-11-15T21:05:32Z</time>
      </trkpt>
      <trkpt lat="49.15719" lon="1.93669">
        <ele>61</ele>
        <time>2022-11-15T21:05:54Z</time>
      </trkpt>
      <trkpt lat="49.1567" lon="1.93695">
        <ele>61</ele>
        <time>2022-11-15T21:07:03Z</time>
      </trkpt>
      <trkpt lat="49.15654" lon="1.93705">
        <ele>61</ele>
        <time>2022-11-15T21:07:26Z</time>
      </trkpt>
      <trkpt lat="49.15626" lon="1.93726">
        <ele>61</ele>
        <time>2022-11-15T21:08:08Z</time>
      </trkpt>
      <trkpt lat="49.15579" lon="1.93765">
        <ele>62</ele>
        <time>2022-11-15T21:09:19Z</time>
      </trkpt>
      <trkpt lat="49.15532" lon="1.93806">
        <ele>61</ele>
        <time>2022-11-15T21:10:31Z</time>
      </trkpt>
      <trkpt lat="49.15529" lon="1.93809">
        <ele>61</ele>
        <time>2022-11-15T21:10:36Z</time>
      </trkpt>
      <trkpt lat="49.15493" lon="1.93848">
        <ele>60</ele>
        <time>2022-11-15T21:11:35Z</time>
      </trkpt>
      <trkpt lat="49.15445" lon="1.93891">
        <ele>59</ele>
        <time>2022-11-15T21:12:49Z</time>
      </trkpt>
      <trkpt lat="49.15422" lon="1.93911">
        <ele>58</ele>
        <time>2022-11-15T21:13:24Z</time>
      </trkpt>
      <trkpt lat="49.15381" lon="1.9394">
        <ele>60</ele>
        <time>2022-11-15T21:14:25Z</time>
      </trkpt>
      <trkpt lat="49.15353" lon="1.93957">
        <ele>61</ele>
        <time>2022-11-15T21:15:05Z</time>
      </trkpt>
      <trkpt lat="49.15326" lon="1.93968">
        <ele>62</ele>
        <time>2022-11-15T21:15:42Z</time>
      </trkpt>
      <trkpt lat="49.1532" lon="1.93969">
        <ele>62</ele>
        <time>2022-11-15T21:15:50Z</time>
      </trkpt>
      <trkpt lat="49.1528" lon="1.93836">
        <ele>65</ele>
        <time>2022-11-15T21:17:58Z</time>
      </trkpt>
      <trkpt lat="49.15281" lon="1.93833">
        <ele>65</ele>
        <time>2022-11-15T21:18:01Z</time>
      </trkpt>
      <trkpt lat="49.1532" lon="1.93759">
        <ele>66</ele>
        <time>2022-11-15T21:19:24Z</time>
      </trkpt>
      <trkpt lat="49.15352" lon="1.9369">
        <ele>69</ele>
        <time>2022-11-15T21:20:38Z</time>
      </trkpt>
      <trkpt lat="49.15363" lon="1.93666">
        <ele>70</ele>
        <time>2022-11-15T21:21:03Z</time>
      </trkpt>
      <trkpt lat="49.15424" lon="1.93577">
        <ele>71</ele>
        <time>2022-11-15T21:22:56Z</time>
      </trkpt>
      <trkpt lat="49.15442" lon="1.93554">
        <ele>74</ele>
        <time>2022-11-15T21:23:27Z</time>
      </trkpt>
      <trkpt lat="49.15453" lon="1.9354">
        <ele>74</ele>
        <time>2022-11-15T21:23:46Z</time>
      </trkpt>
      <trkpt lat="49.15512" lon="1.93475">
        <ele>76</ele>
        <time>2022-11-15T21:25:23Z</time>
      </trkpt>
      <trkpt lat="49.15528" lon="1.93463">
        <ele>75</ele>
        <time>2022-11-15T21:25:47Z</time>
      </trkpt>
      <trkpt lat="49.15546" lon="1.93455">
        <ele>74</ele>
        <time>2022-11-15T21:26:12Z</time>
      </trkpt>
      <trkpt lat="49.15582" lon="1.93446">
        <ele>71</ele>
        <time>2022-11-15T21:27:01Z</time>
      </trkpt>
      <trkpt lat="49.15596" lon="1.93445">
        <ele>71</ele>
        <time>2022-11-15T21:27:19Z</time>
      </trkpt>
      <trkpt lat="49.15734" lon="1.93434">
        <ele>72</ele>
        <time>2022-11-15T21:30:24Z</time>
      </trkpt>
      <trkpt lat="49.15743" lon="1.93433">
        <ele>69.3</ele>
        <time>2022-11-15T21:30:40Z</time>
      </trkpt>
      <trkpt lat="49.15723" lon="1.93419">
        <ele>74</ele>
        <time>2022-11-15T21:31:07Z</time>
      </trkpt>
      <trkpt lat="49.15694" lon="1.93397">
        <ele>77</ele>
        <time>2022-11-15T21:31:50Z</time>
      </trkpt>
      <trkpt lat="49.15646" lon="1.93384">
        <ele>80</ele>
        <time>2022-11-15T21:32:56Z</time>
      </trkpt>
      <trkpt lat="49.15596" lon="1.93374">
        <ele>83</ele>
        <time>2022-11-15T21:34:03Z</time>
      </trkpt>
      <trkpt lat="49.15526" lon="1.93375">
        <ele>88</ele>
        <time>2022-11-15T21:35:36Z</time>
      </trkpt>
      <trkpt lat="49.15517" lon="1.93377">
        <ele>88</ele>
        <time>2022-11-15T21:35:56Z</time>
      </trkpt>
      <trkpt lat="49.15482" lon="1.93395">
        <ele>89</ele>
        <time>2022-11-15T21:36:45Z</time>
      </trkpt>
      <trkpt lat="49.15449" lon="1.93434">
        <ele>88</ele>
        <time>2022-11-15T21:37:41Z</time>
      </trkpt>
      <trkpt lat="49.15416" lon="1.93473">
        <ele>88</ele>
        <time>2022-11-15T21:38:36Z</time>
      </trkpt>
      <trkpt lat="49.15381" lon="1.93493">
        <ele>88</ele>
        <time>2022-11-15T21:39:26Z</time>
      </trkpt>
      <trkpt lat="49.15273" lon="1.93504">
        <ele>90</ele>
        <time>2022-11-15T21:41:51Z</time>
      </trkpt>
      <trkpt lat="49.1523" lon="1.93526">
        <ele>90</ele>
        <time>2022-11-15T21:42:51Z</time>
      </trkpt>
      <trkpt lat="49.15127" lon="1.93579">
        <ele>89</ele>
        <time>2022-11-15T21:45:16Z</time>
      </trkpt>
      <trkpt lat="49.1512" lon="1.93577">
        <ele>89</ele>
        <time>2022-11-15T21:45:26Z</time>
      </trkpt>
      <trkpt lat="49.15101" lon="1.93556">
        <ele>90.2</ele>
      </trkpt>
      <trkpt lat="49.15076" lon="1.93544">
        <ele>89</ele>
      </trkpt>
      <trkpt lat="49.15022" lon="1.93546">
        <ele>82</ele>
      </trkpt>
      <trkpt lat="49.14911" lon="1.93491">
        <ele>80.7</ele>
        <time>2022-11-15T21:50:26Z</time>
      </trkpt>
      <trkpt lat="49.14802" lon="1.93531">
        <ele>71.5</ele>
      </trkpt>
      <trkpt lat="49.14751" lon="1.93573">
        <ele>66.1</ele>
        <time>2022-11-15T21:53:59Z</time>
      </trkpt>
      <trkpt lat="49.14824" lon="1.93553">
        <ele>65.1</ele>
      </trkpt>
      <trkpt lat="49.14826" lon="1.93555">
        <ele>74</ele>
        <time>2022-11-15T21:55:42Z</time>
      </trkpt>
      <trkpt lat="49.14843" lon="1.93574">
        <ele>72</ele>
        <time>2022-11-15T21:56:10Z</time>
      </trkpt>
      <trkpt lat="49.1484" lon="1.93598">
        <ele>69</ele>
        <time>2022-11-15T21:56:31Z</time>
      </trkpt>
      <trkpt lat="49.14758" lon="1.93603">
        <ele>68</ele>
        <time>2022-11-15T21:58:21Z</time>
      </trkpt>
      <trkpt lat="49.14674" lon="1.93622">
        <ele>63</ele>
        <time>2022-11-15T22:00:14Z</time>
      </trkpt>
      <trkpt lat="49.14662" lon="1.93671">
        <ele>57</ele>
        <time>2022-11-15T22:01:00Z</time>
      </trkpt>
      <trkpt lat="49.14657" lon="1.93612">
        <ele>64</ele>
        <time>2022-11-15T22:01:52Z</time>
      </trkpt>
      <trkpt lat="49.14654" lon="1.936">
        <ele>65</ele>
        <time>2022-11-15T22:02:03Z</time>
      </trkpt>
      <trkpt lat="49.14612" lon="1.93582">
        <ele>65</ele>
        <time>2022-11-15T22:03:01Z</time>
      </trkpt>
      <trkpt lat="49.14557" lon="1.93544">
        <ele>65</ele>
        <time>2022-11-15T22:04:22Z</time>
      </trkpt>
      <trkpt lat="49.14543" lon="1.93525">
        <ele>66</ele>
        <time>2022-11-15T22:04:46Z</time>
      </trkpt>
      <trkpt lat="49.14522" lon="1.9348">
        <ele>65</ele>
        <time>2022-11-15T22:05:35Z</time>
      </trkpt>
      <trkpt lat="49.14524" lon="1.9345">
        <ele>66</ele>
        <time>2022-11-15T22:06:01Z</time>
      </trkpt>
      <trkpt lat="49.14526" lon="1.93432">
        <ele>66</ele>
        <time>2022-11-15T22:06:17Z</time>
      </trkpt>
      <trkpt lat="49.14545" lon="1.93354">
        <ele>68</ele>
        <time>2022-11-15T22:07:30Z</time>
      </trkpt>
      <trkpt lat="49.14549" lon="1.93338">
        <ele>68</ele>
        <time>2022-11-15T22:07:45Z</time>
      </trkpt>
      <trkpt lat="49.14559" lon="1.9331">
        <ele>68</ele>
        <time>2022-11-15T22:08:12Z</time>
      </trkpt>
      <trkpt lat="49.14625" lon="1.93132">
        <ele>68.4</ele>
        <time>2022-11-15T22:11:13Z</time>
      </trkpt>
      <trkpt lat="49.14636" lon="1.93084">
        <ele>74</ele>
        <time>2022-11-15T22:11:55Z</time>
      </trkpt>
      <trkpt lat="49.14644" lon="1.93021">
        <ele>74</ele>
        <time>2022-11-15T22:12:51Z</time>
      </trkpt>
      <trkpt lat="49.14644" lon="1.93008">
        <ele>74</ele>
        <time>2022-11-15T22:13:03Z</time>
      </trkpt>
      <trkpt lat="49.14641" lon="1.92901">
        <ele>74</ele>
        <time>2022-11-15T22:14:36Z</time>
      </trkpt>
      <trkpt lat="49.14635" lon="1.9285">
        <ele>76</ele>
        <time>2022-11-15T22:15:21Z</time>
      </trkpt>
      <trkpt lat="49.14629" lon="1.92781">
        <ele>76</ele>
        <time>2022-11-15T22:16:22Z</time>
      </trkpt>
      <trkpt lat="49.14632" lon="1.92746">
        <ele>76</ele>
        <time>2022-11-15T22:16:53Z</time>
      </trkpt>
      <trkpt lat="49.14647" lon="1.92541">
        <ele>80</ele>
        <time>2022-11-15T22:19:53Z</time>
      </trkpt>
      <trkpt lat="49.14649" lon="1.92511">
        <ele>81</ele>
        <time>2022-11-15T22:20:19Z</time>
      </trkpt>
      <trkpt lat="49.14666" lon="1.92434">
        <ele>82</ele>
        <time>2022-11-15T22:21:30Z</time>
      </trkpt>
      <trkpt lat="49.1468" lon="1.92389">
        <ele>83.9</ele>
        <time>2022-11-15T22:22:13Z</time>
      </trkpt>
      <trkpt lat="49.14687" lon="1.92336">
        <ele>84</ele>
        <time>2022-11-15T22:23:01Z</time>
      </trkpt>
      <trkpt lat="49.14698" lon="1.92243">
        <ele>87</ele>
        <time>2022-11-15T22:24:23Z</time>
      </trkpt>
      <trkpt lat="49.1472" lon="1.92133">
        <ele>87</ele>
        <time>2022-11-15T22:26:04Z</time>
      </trkpt>
      <trkpt lat="49.14736" lon="1.92078">
        <ele>87</ele>
        <time>2022-11-15T22:26:56Z</time>
      </trkpt>
      <trkpt lat="49.14746" lon="1.92071">
        <ele>87</ele>
        <time>2022-11-15T22:27:11Z</time>
      </trkpt>
      <trkpt lat="49.14778" lon="1.9205">
        <ele>88</ele>
        <time>2022-11-15T22:27:57Z</time>
      </trkpt>
      <trkpt lat="49.14775" lon="1.92015">
        <ele>88.7</ele>
        <time>2022-11-15T22:28:12Z</time>
      </trkpt>
      <trkpt lat="49.14765" lon="1.9196">
        <ele>89.7</ele>
        <time>2022-11-15T22:29:18Z</time>
      </trkpt>
      <trkpt lat="49.14756" lon="1.91919">
        <ele>89</ele>
        <time>2022-11-15T22:29:56Z</time>
      </trkpt>
      <trkpt lat="49.14747" lon="1.91889">
        <ele>91.1</ele>
      </trkpt>
      <trkpt lat="49.14739" lon="1.91871">
        <ele>89</ele>
        <time>2022-11-15T22:30:43Z</time>
      </trkpt>
      <trkpt lat="49.14728" lon="1.91852">
        <ele>90</ele>
        <time>2022-11-15T22:31:05Z</time>
      </trkpt>
      <trkpt lat="49.14684" lon="1.91771">
        <ele>92</ele>
        <time>2022-11-15T22:32:37Z</time>
      </trkpt>
      <trkpt lat="49.14677" lon="1.91752">
        <ele>92</ele>
        <time>2022-11-15T22:32:56Z</time>
      </trkpt>
      <trkpt lat="49.14677" lon="1.91745">
        <ele>95</ele>
        <time>2022-11-15T22:33:03Z</time>
      </trkpt>
      <trkpt lat="49.1469" lon="1.91668">
        <ele>93</ele>
        <time>2022-11-15T22:34:35Z</time>
      </trkpt>
      <trkpt lat="49.14696" lon="1.91619">
        <ele>96</ele>
        <time>2022-11-15T22:35:19Z</time>
      </trkpt>
      <trkpt lat="49.14706" lon="1.9149">
        <ele>96</ele>
        <time>2022-11-15T22:36:04Z</time>
      </trkpt>
      <trkpt lat="49.14707" lon="1.9144">
        <ele>96</ele>
        <time>2022-11-15T22:37:39Z</time>
      </trkpt>
      <trkpt lat="49.14707" lon="1.91394">
        <ele>96.5</ele>
        <time>2022-11-15T22:38:36Z</time>
      </trkpt>
      <trkpt lat="49.14701" lon="1.91317">
        <ele>95</ele>
        <time>2022-11-15T22:39:43Z</time>
      </trkpt>
      <trkpt lat="49.14695" lon="1.91229">
        <ele>95</ele>
        <time>2022-11-15T22:41:00Z</time>
      </trkpt>
      <trkpt lat="49.14695" lon="1.91146">
        <ele>95</ele>
        <time>2022-11-15T22:42:12Z</time>
      </trkpt>
      <trkpt lat="49.14697" lon="1.91127">
        <ele>95</ele>
        <time>2022-11-15T22:42:29Z</time>
      </trkpt>
      <trkpt lat="49.14709" lon="1.9101">
        <ele>95</ele>
        <time>2022-11-15T22:44:13Z</time>
      </trkpt>
      <trkpt lat="49.1472" lon="1.90886">
        <ele>96</ele>
        <time>2022-11-15T22:46:02Z</time>
      </trkpt>
      <trkpt lat="49.14733" lon="1.90736">
        <ele>98</ele>
        <time>2022-11-15T22:48:14Z</time>
      </trkpt>
      <trkpt lat="49.14734" lon="1.90693">
        <ele>100.4</ele>
        <time>2022-11-15T22:48:54Z</time>
      </trkpt>
      <trkpt lat="49.14687" lon="1.90516">
        <ele>99</ele>
        <time>2022-11-15T22:52:03Z</time>
      </trkpt>
      <trkpt lat="49.14662" lon="1.90418">
        <ele>102</ele>
        <time>2022-11-15T22:53:35Z</time>
      </trkpt>
      <trkpt lat="49.14622" lon="1.90314">
        <ele>104</ele>
        <time>2022-11-15T22:55:20Z</time>
      </trkpt>
      <trkpt lat="49.14589" lon="1.90205">
        <ele>104</ele>
        <time>2022-11-15T22:57:05Z</time>
      </trkpt>
      <trkpt lat="49.14574" lon="1.90175">
        <ele>104</ele>
        <time>2022-11-15T22:57:38Z</time>
      </trkpt>
      <trkpt lat="49.14565" lon="1.90165">
        <ele>104</ele>
        <time>2022-11-15T22:57:53Z</time>
      </trkpt>
      <trkpt lat="49.14559" lon="1.90152">
        <ele>105.5</ele>
        <time>2022-11-15T22:58:09Z</time>
      </trkpt>
      <trkpt lat="49.14534" lon="1.90206">
        <ele>104</ele>
        <time>2022-11-15T23:00:28Z</time>
      </trkpt>
      <trkpt lat="49.14529" lon="1.90224">
        <ele>104</ele>
        <time>2022-11-15T23:00:45Z</time>
      </trkpt>
      <trkpt lat="49.14527" lon="1.90254">
        <ele>104</ele>
        <time>2022-11-15T23:01:12Z</time>
      </trkpt>
      <trkpt lat="49.14533" lon="1.90302">
        <ele>104</ele>
        <time>2022-11-15T23:01:54Z</time>
      </trkpt>
      <trkpt lat="49.14532" lon="1.90343">
        <ele>102.8</ele>
        <time>2022-11-15T23:02:29Z</time>
      </trkpt>
      <trkpt lat="49.14515" lon="1.90425">
        <ele>100</ele>
        <time>2022-11-15T23:03:45Z</time>
      </trkpt>
      <trkpt lat="49.14456" lon="1.90615">
        <ele>99.9</ele>
        <time>2022-11-15T23:06:49Z</time>
      </trkpt>
      <trkpt lat="49.14422" lon="1.90724">
        <ele>98.9</ele>
        <time>2022-11-15T23:08:34Z</time>
      </trkpt>
      <trkpt lat="49.14394" lon="1.90847">
        <ele>97.2</ele>
        <time>2022-11-15T23:10:27Z</time>
      </trkpt>
      <trkpt lat="49.14329" lon="1.91131">
        <ele>93.8</ele>
        <time>2022-11-15T23:14:50Z</time>
      </trkpt>
      <trkpt lat="49.14286" lon="1.91172">
        <ele>92.3</ele>
        <time>2022-11-15T23:15:58Z</time>
      </trkpt>
      <trkpt lat="49.14278" lon="1.91209">
        <ele>92</ele>
        <time>2022-11-15T23:16:30Z</time>
      </trkpt>
      <trkpt lat="49.14243" lon="1.91344">
        <ele>90.8</ele>
        <time>2022-11-15T23:18:38Z</time>
      </trkpt>
      <trkpt lat="49.14239" lon="1.91367">
        <ele>90.5</ele>
        <time>2022-11-15T23:19:00Z</time>
      </trkpt>
      <trkpt lat="49.14238" lon="1.91401">
        <ele>89.9</ele>
      </trkpt>
      <trkpt lat="49.14232" lon="1.91448">
        <ele>89.3</ele>
        <time>2022-11-15T23:20:11Z</time>
      </trkpt>
      <trkpt lat="49.14207" lon="1.9152">
        <ele>88.9</ele>
        <time>2022-11-15T23:21:24Z</time>
      </trkpt>
      <trkpt lat="49.14196" lon="1.9163">
        <ele>91.8</ele>
        <time>2022-11-15T23:23:01Z</time>
      </trkpt>
      <trkpt lat="49.14187" lon="1.91674">
        <ele>92.2</ele>
        <time>2022-11-15T23:23:36Z</time>
      </trkpt>
      <trkpt lat="49.14134" lon="1.91823">
        <ele>92.7</ele>
        <time>2022-11-15T23:26:07Z</time>
      </trkpt>
      <trkpt lat="49.14061" lon="1.92027">
        <ele>92</ele>
        <time>2022-11-15T23:29:30Z</time>
      </trkpt>
      <trkpt lat="49.14011" lon="1.92165">
        <ele>94</ele>
        <time>2022-11-15T23:31:48Z</time>
      </trkpt>
      <trkpt lat="49.13988" lon="1.92214">
        <ele>94</ele>
        <time>2022-11-15T23:32:40Z</time>
      </trkpt>
      <trkpt lat="49.13902" lon="1.92395">
        <ele>95</ele>
        <time>2022-11-15T23:35:56Z</time>
      </trkpt>
      <trkpt lat="49.13892" lon="1.92412">
        <ele>95</ele>
        <time>2022-11-15T23:36:16Z</time>
      </trkpt>
      <trkpt lat="49.1381" lon="1.92516">
        <ele>94</ele>
        <time>2022-11-15T23:38:38Z</time>
      </trkpt>
      <trkpt lat="49.13769" lon="1.92578">
        <ele>93</ele>
        <time>2022-11-15T23:39:55Z</time>
      </trkpt>
      <trkpt lat="49.13756" lon="1.92609">
        <ele>93</ele>
        <time>2022-11-15T23:40:27Z</time>
      </trkpt>
      <trkpt lat="49.13741" lon="1.92654">
        <ele>94</ele>
        <time>2022-11-15T23:41:11Z</time>
      </trkpt>
      <trkpt lat="49.13724" lon="1.92743">
        <ele>93</ele>
        <time>2022-11-15T23:42:32Z</time>
      </trkpt>
      <trkpt lat="49.13719" lon="1.92788">
        <ele>93</ele>
        <time>2022-11-15T23:43:12Z</time>
      </trkpt>
      <trkpt lat="49.13715" lon="1.9286">
        <ele>92</ele>
        <time>2022-11-15T23:44:15Z</time>
      </trkpt>
      <trkpt lat="49.13715" lon="1.92892">
        <ele>92</ele>
        <time>2022-11-15T23:44:43Z</time>
      </trkpt>
      <trkpt lat="49.13721" lon="1.92964">
        <ele>92</ele>
        <time>2022-11-15T23:45:46Z</time>
      </trkpt>
      <trkpt lat="49.13739" lon="1.93076">
        <ele>94</ele>
        <time>2022-11-15T23:47:26Z</time>
      </trkpt>
      <trkpt lat="49.13746" lon="1.93134">
        <ele>93.2</ele>
        <time>2022-11-15T23:48:08Z</time>
      </trkpt>
      <trkpt lat="49.13747" lon="1.93181">
        <ele>93</ele>
        <time>2022-11-15T23:49:00Z</time>
      </trkpt>
      <trkpt lat="49.13749" lon="1.93196">
        <ele>93</ele>
        <time>2022-11-15T23:49:12Z</time>
      </trkpt>
      <trkpt lat="49.13743" lon="1.93202">
        <ele>92.8</ele>
      </trkpt>
      <trkpt lat="49.13742" lon="1.93209">
        <ele>92.6</ele>
        <time>2022-11-15T23:49:38Z</time>
      </trkpt>
      <trkpt lat="49.13727" lon="1.93384">
        <ele>90</ele>
        <time>2022-11-15T23:52:11Z</time>
      </trkpt>
      <trkpt lat="49.1372" lon="1.93438">
        <ele>88.3</ele>
        <time>2022-11-15T23:53:26Z</time>
      </trkpt>
      <trkpt lat="49.13712" lon="1.93477">
        <ele>87.6</ele>
        <time>2022-11-15T23:53:39Z</time>
      </trkpt>
      <trkpt lat="49.13687" lon="1.93533">
        <ele>85</ele>
        <time>2022-11-15T23:54:35Z</time>
      </trkpt>
      <trkpt lat="49.13686" lon="1.93558">
        <ele>84</ele>
        <time>2022-11-15T23:54:57Z</time>
      </trkpt>
      <trkpt lat="49.13674" lon="1.93633">
        <ele>81</ele>
        <time>2022-11-15T23:56:04Z</time>
      </trkpt>
      <trkpt lat="49.13669" lon="1.937">
        <ele>77</ele>
        <time>2022-11-15T23:57:03Z</time>
      </trkpt>
      <trkpt lat="49.13654" lon="1.93784">
        <ele>74</ele>
        <time>2022-11-15T23:58:42Z</time>
      </trkpt>
      <trkpt lat="49.13633" lon="1.939">
        <ele>70</ele>
        <time>2022-11-16T00:00:27Z</time>
      </trkpt>
      <trkpt lat="49.13625" lon="1.93938">
        <ele>68</ele>
        <time>2022-11-16T00:01:02Z</time>
      </trkpt>
      <trkpt lat="49.13617" lon="1.9397">
        <ele>66</ele>
        <time>2022-11-16T00:01:32Z</time>
      </trkpt>
      <trkpt lat="49.13605" lon="1.93996">
        <ele>65</ele>
        <time>2022-11-16T00:01:59Z</time>
      </trkpt>
      <trkpt lat="49.13595" lon="1.9401">
        <ele>65</ele>
        <time>2022-11-16T00:02:17Z</time>
      </trkpt>
      <trkpt lat="49.13583" lon="1.9402">
        <ele>65</ele>
        <time>2022-11-16T00:02:36Z</time>
      </trkpt>
      <trkpt lat="49.1355" lon="1.94037">
        <ele>67</ele>
        <time>2022-11-16T00:03:22Z</time>
      </trkpt>
      <trkpt lat="49.13544" lon="1.94048">
        <ele>67</ele>
        <time>2022-11-16T00:03:35Z</time>
      </trkpt>
      <trkpt lat="49.13543" lon="1.94062">
        <ele>66</ele>
        <time>2022-11-16T00:03:47Z</time>
      </trkpt>
      <trkpt lat="49.13552" lon="1.94082">
        <ele>63</ele>
        <time>2022-11-16T00:04:08Z</time>
      </trkpt>
      <trkpt lat="49.13575" lon="1.94153">
        <ele>56</ele>
        <time>2022-11-16T00:05:15Z</time>
      </trkpt>
      <trkpt lat="49.13679" lon="1.94303">
        <ele>60</ele>
        <time>2022-11-16T00:08:28Z</time>
      </trkpt>
      <trkpt lat="49.13686" lon="1.94324">
        <ele>61</ele>
        <time>2022-11-16T00:08:49Z</time>
      </trkpt>
      <trkpt lat="49.13687" lon="1.94341">
        <ele>61</ele>
        <time>2022-11-16T00:09:04Z</time>
      </trkpt>
      <trkpt lat="49.13695" lon="1.94348">
        <ele>62</ele>
        <time>2022-11-16T00:09:16Z</time>
      </trkpt>
      <trkpt lat="49.13752" lon="1.94335">
        <ele>63</ele>
        <time>2022-11-16T00:10:33Z</time>
      </trkpt>
    </trkseg>
  </trk>
</gpx>